createdAt,value
2019-03-29T00:01:05.492Z,76.25
2019-03-29T00:03:36.296Z,76.78
2019-03-29T00:06:07.133Z,77.04
2019-03-29T00:08:37.544Z,77.17
2019-03-29T00:11:08.043Z,77.21
2019-03-29T00:13:38.497Z,76.92
2019-03-29T00:16:08.941Z,76.11
2019-03-29T00:18:39.460Z,75.95
2019-03-29T00:21:09.945Z,76.22
2019-03-29T00:23:42.492Z,76.47
2019-03-29T00:26:13.018Z,76.43
2019-03-29T00:28:43.583Z,76.61
2019-03-29T00:31:14.191Z,76.25
2019-03-29T00:33:44.565Z,76.18
2019-03-29T00:36:15.194Z,76.89
2019-03-29T00:38:45.920Z,77.12
2019-03-29T00:41:16.681Z,77.06
2019-03-29T00:43:47.296Z,77.35
2019-03-29T00:46:18.191Z,76.86
2019-03-29T00:48:48.744Z,76.98
2019-03-29T00:51:19.515Z,77.26
2019-03-29T00:53:51.232Z,77.51
2019-03-29T00:56:21.707Z,77.68
2019-03-29T00:58:53.747Z,77.69
2019-03-29T01:01:26.051Z,77.80
2019-03-29T01:03:57.796Z,77.34
2019-03-29T01:06:29.960Z,77.33
2019-03-29T01:09:00.811Z,77.24
2019-03-29T01:11:33.509Z,77.46
2019-03-29T01:14:04.333Z,77.67
2019-03-29T01:16:36.052Z,77.83
2019-03-29T01:19:06.773Z,78.22
2019-03-29T01:21:37.755Z,78.14
2019-03-29T01:24:08.198Z,77.64
2019-03-29T01:26:38.703Z,77.75
2019-03-29T01:29:09.179Z,77.70
2019-03-29T01:31:40.228Z,77.71
2019-03-29T01:34:11.475Z,77.73
2019-03-29T01:36:41.810Z,77.90
2019-03-29T01:39:12.612Z,77.77
2019-03-29T01:41:43.526Z,77.71
2019-03-29T01:44:15.387Z,78.02
2019-03-29T01:46:45.925Z,78.76
2019-03-29T01:49:16.450Z,78.91
2019-03-29T01:51:46.967Z,78.92
2019-03-29T01:54:17.804Z,78.73
2019-03-29T01:56:48.243Z,78.64
2019-03-29T01:59:18.766Z,78.50
2019-03-29T02:01:49.228Z,78.53
2019-03-29T02:04:20.318Z,78.32
2019-03-29T02:06:51.202Z,78.11
2019-03-29T02:09:22.696Z,77.92
2019-03-29T02:11:53.430Z,77.79
2019-03-29T02:14:23.894Z,77.65
2019-03-29T02:16:55.844Z,77.43
2019-03-29T02:19:26.624Z,77.37
2019-03-29T02:21:57.318Z,76.91
2019-03-29T02:24:27.891Z,76.79
2019-03-29T02:26:58.285Z,77.25
2019-03-29T02:29:29.099Z,77.67
2019-03-29T02:32:00.626Z,77.83
2019-03-29T02:34:31.150Z,77.55
2019-03-29T02:37:02.305Z,77.85
2019-03-29T02:39:33.083Z,77.85
2019-03-29T02:42:03.594Z,77.76
2019-03-29T02:44:35.021Z,77.69
2019-03-29T02:47:06.877Z,77.53
2019-03-29T02:49:37.474Z,77.50
2019-03-29T02:52:07.935Z,77.68
2019-03-29T02:54:38.530Z,77.34
2019-03-29T02:57:09.344Z,78.08
2019-03-29T02:59:39.874Z,78.37
2019-03-29T03:02:10.374Z,78.58
2019-03-29T03:04:40.866Z,78.62
2019-03-29T03:07:11.401Z,78.54
2019-03-29T03:09:42.343Z,78.49
2019-03-29T03:12:12.941Z,78.62
2019-03-29T03:14:43.459Z,78.84
2019-03-29T03:17:13.961Z,78.63
2019-03-29T03:19:44.681Z,78.58
2019-03-29T03:22:15.108Z,78.57
2019-03-29T03:24:45.658Z,78.48
2019-03-29T03:27:16.170Z,78.27
2019-03-29T03:29:48.488Z,77.99
2019-03-29T03:32:19.084Z,77.78
2019-03-29T03:34:50.001Z,77.57
2019-03-29T03:37:20.636Z,78.01
2019-03-29T03:39:51.176Z,78.23
2019-03-29T03:42:22.423Z,78.44
2019-03-29T03:44:54.018Z,78.73
2019-03-29T03:47:24.475Z,78.73
2019-03-29T03:49:55.063Z,78.72
2019-03-29T03:52:25.733Z,78.81
2019-03-29T03:54:56.706Z,79.23
2019-03-29T03:57:27.761Z,79.36
2019-03-29T04:00:00.031Z,79.45
2019-03-29T04:02:30.577Z,79.38
2019-03-29T04:05:00.989Z,79.33
2019-03-29T04:07:31.551Z,78.90
2019-03-29T04:10:02.115Z,78.60
2019-03-29T04:12:32.789Z,78.35
2019-03-29T04:15:03.325Z,78.99
2019-03-29T04:17:33.942Z,79.24
2019-03-29T04:20:04.766Z,79.23
2019-03-29T04:22:35.367Z,78.89
2019-03-29T04:25:06.580Z,78.30
2019-03-29T04:27:37.432Z,78.50
2019-03-29T04:30:08.144Z,78.74
2019-03-29T04:32:39.469Z,78.68
2019-03-29T04:35:10.172Z,78.60
2019-03-29T04:37:40.615Z,78.26
2019-03-29T04:40:11.473Z,78.76
2019-03-29T04:42:41.869Z,78.82
2019-03-29T04:45:12.442Z,78.89
2019-03-29T04:47:42.918Z,78.93
2019-03-29T04:50:14.197Z,78.91
2019-03-29T04:52:44.706Z,78.92
2019-03-29T04:55:15.368Z,78.90
2019-03-29T04:57:45.955Z,78.73
2019-03-29T05:00:17.701Z,78.50
2019-03-29T05:02:48.700Z,78.43
2019-03-29T05:05:19.628Z,78.24
2019-03-29T05:07:50.418Z,78.03
2019-03-29T05:10:22.022Z,77.94
2019-03-29T05:12:52.649Z,77.83
2019-03-29T05:15:23.215Z,77.90
2019-03-29T05:17:54.441Z,77.89
2019-03-29T05:20:25.368Z,77.83
2019-03-29T05:22:56.475Z,77.73
2019-03-29T05:25:27.086Z,77.56
2019-03-29T05:27:57.860Z,77.49
2019-03-29T05:30:28.573Z,77.46
2019-03-29T05:32:59.090Z,77.55
2019-03-29T05:35:29.630Z,77.61
2019-03-29T05:38:00.443Z,77.66
2019-03-29T05:40:35.078Z,77.82
2019-03-29T05:43:03.593Z,77.82
2019-03-29T05:45:34.100Z,77.85
2019-03-29T05:48:04.617Z,77.86
2019-03-29T05:50:36.820Z,77.85
2019-03-29T05:53:07.576Z,77.82
2019-03-29T05:55:38.109Z,77.86
2019-03-29T05:58:08.844Z,77.85
2019-03-29T06:00:39.645Z,77.86
2019-03-29T06:03:10.450Z,77.87
2019-03-29T06:05:41.689Z,77.90
2019-03-29T06:08:12.156Z,77.91
2019-03-29T06:10:48.799Z,77.99
2019-03-29T06:13:15.166Z,77.96
2019-03-29T06:15:45.669Z,78.08
2019-03-29T06:18:16.623Z,78.16
2019-03-29T06:20:48.037Z,78.17
2019-03-29T06:23:18.801Z,78.29
2019-03-29T06:25:49.812Z,78.41
2019-03-29T06:28:20.650Z,78.45
2019-03-29T06:30:51.186Z,78.61
2019-03-29T06:33:21.591Z,78.75
2019-03-29T06:35:54.083Z,78.87
2019-03-29T06:38:26.460Z,78.97
2019-03-29T06:41:02.931Z,79.21
2019-03-29T06:43:29.183Z,79.49
2019-03-29T06:45:59.926Z,79.74
2019-03-29T06:48:30.425Z,80.09
2019-03-29T06:51:01.241Z,80.32
2019-03-29T06:53:31.636Z,80.68
2019-03-29T06:56:02.134Z,80.85
2019-03-29T06:58:32.940Z,80.88
2019-03-29T07:01:03.401Z,81.01
2019-03-29T07:03:33.878Z,81.17
2019-03-29T07:06:04.401Z,81.41
2019-03-29T07:08:35.284Z,81.59
2019-03-29T07:11:16.511Z,81.74
2019-03-29T07:13:38.217Z,81.90
2019-03-29T07:16:08.761Z,81.85
2019-03-29T07:18:39.271Z,81.65
2019-03-29T07:21:20.879Z,81.40
2019-03-29T07:23:42.913Z,80.96
2019-03-29T07:26:13.428Z,80.59
2019-03-29T07:28:44.099Z,80.32
2019-03-29T07:31:14.622Z,80.24
2019-03-29T07:33:45.114Z,80.15
2019-03-29T07:36:15.741Z,80.01
2019-03-29T07:38:46.250Z,79.79
2019-03-29T07:41:30.745Z,79.81
2019-03-29T07:43:48.916Z,79.64
2019-03-29T07:46:19.584Z,79.40
2019-03-29T07:48:50.743Z,79.24
2019-03-29T07:51:21.264Z,79.22
2019-03-29T07:53:51.688Z,79.25
2019-03-29T07:56:22.202Z,79.09
2019-03-29T07:58:52.629Z,78.74
2019-03-29T08:01:23.151Z,78.58
2019-03-29T08:03:53.601Z,78.37
2019-03-29T08:06:24.552Z,78.30
2019-03-29T08:08:55.063Z,78.32
2019-03-29T08:11:27.643Z,78.07
2019-03-29T08:13:58.930Z,77.73
2019-03-29T08:16:29.522Z,77.34
2019-03-29T08:19:00.312Z,77.29
2019-03-29T08:21:31.080Z,77.24
2019-03-29T08:24:01.578Z,77.01
2019-03-29T08:26:32.548Z,76.83
2019-03-29T08:29:03.231Z,76.68
2019-03-29T08:31:33.736Z,76.37
2019-03-29T08:34:04.569Z,76.20
2019-03-29T08:36:35.389Z,76.18
2019-03-29T08:39:10.110Z,76.20
2019-03-29T08:41:39.280Z,76.11
2019-03-29T08:44:11.853Z,75.85
2019-03-29T08:46:43.393Z,75.93
2019-03-29T08:49:16.841Z,75.75
2019-03-29T08:51:47.009Z,75.77
2019-03-29T08:54:17.492Z,75.74
2019-03-29T08:56:47.978Z,75.80
2019-03-29T08:59:18.434Z,75.77
2019-03-29T09:01:50.119Z,75.71
2019-03-29T09:04:21.827Z,75.72
2019-03-29T09:06:54.143Z,75.63
2019-03-29T09:09:24.842Z,75.64
2019-03-29T09:11:55.407Z,75.48
2019-03-29T09:14:26.191Z,75.47
2019-03-29T09:16:56.636Z,75.21
2019-03-29T09:19:28.721Z,75.24
2019-03-29T09:21:59.243Z,75.23
2019-03-29T09:24:29.648Z,74.96
2019-03-29T09:27:00.501Z,75.07
2019-03-29T09:29:31.019Z,75.08
2019-03-29T09:32:01.835Z,75.38
2019-03-29T09:34:33.344Z,75.60
2019-03-29T09:37:03.943Z,75.11
2019-03-29T09:39:34.461Z,75.08
2019-03-29T09:42:04.974Z,74.77
2019-03-29T09:44:35.800Z,74.61
2019-03-29T09:47:06.627Z,75.01
2019-03-29T09:49:37.108Z,74.87
2019-03-29T09:52:08.105Z,74.75
2019-03-29T09:54:39.361Z,74.18
2019-03-29T09:57:14.893Z,74.19
2019-03-29T09:59:42.220Z,73.88
2019-03-29T10:02:12.754Z,73.70
2019-03-29T10:04:43.265Z,73.43
2019-03-29T10:07:13.741Z,72.96
2019-03-29T10:09:44.340Z,72.29
2019-03-29T10:12:14.923Z,71.78
2019-03-29T10:14:45.846Z,71.93
2019-03-29T10:17:16.390Z,71.80
2019-03-29T10:19:49.692Z,70.93
2019-03-29T10:22:19.464Z,72.06
2019-03-29T10:24:49.817Z,71.43
2019-03-29T10:27:20.807Z,71.03
2019-03-29T10:29:51.560Z,70.18
2019-03-29T10:32:22.156Z,69.38
2019-03-29T10:34:52.642Z,68.76
2019-03-29T10:37:23.326Z,67.48
2019-03-29T10:39:54.210Z,67.84
2019-03-29T10:42:24.926Z,67.92
2019-03-29T10:44:56.004Z,67.08
2019-03-29T10:47:42.359Z,65.84
2019-03-29T10:49:59.477Z,64.76
2019-03-29T10:52:30.268Z,64.73
2019-03-29T10:55:02.062Z,65.51
2019-03-29T10:57:32.548Z,64.13
2019-03-29T11:00:03.417Z,63.73
2019-03-29T11:02:34.550Z,64.15
2019-03-29T11:05:05.343Z,63.34
2019-03-29T11:07:36.462Z,62.96
2019-03-29T11:10:07.078Z,62.31
2019-03-29T11:12:37.623Z,60.78
2019-03-29T11:15:08.454Z,60.24
2019-03-29T11:17:38.985Z,61.65
2019-03-29T11:20:09.522Z,60.42
2019-03-29T11:22:39.985Z,58.61
2019-03-29T11:25:10.563Z,59.63
2019-03-29T11:27:41.068Z,60.33
2019-03-29T11:30:11.651Z,58.42
2019-03-29T11:32:42.063Z,58.54
2019-03-29T11:35:12.548Z,58.33
2019-03-29T11:37:43.079Z,59.20
2019-03-29T11:40:13.853Z,58.38
2019-03-29T11:42:44.795Z,58.62
2019-03-29T11:45:15.354Z,57.02
2019-03-29T11:47:46.248Z,56.37
2019-03-29T11:50:17.115Z,55.46
2019-03-29T11:52:48.919Z,54.86
2019-03-29T11:55:19.516Z,54.60
2019-03-29T11:57:50.035Z,54.62
2019-03-29T12:00:33.998Z,54.95
2019-03-29T12:03:09.374Z,56.43
2019-03-29T12:05:40.624Z,55.56
2019-03-29T12:08:11.116Z,54.19
2019-03-29T12:10:42.009Z,53.66
2019-03-29T12:13:13.048Z,52.68
2019-03-29T12:15:43.666Z,52.19
2019-03-29T12:18:14.674Z,52.31
2019-03-29T12:20:46.396Z,51.62
2019-03-29T12:23:17.291Z,52.18
2019-03-29T12:25:47.844Z,51.80
2019-03-29T12:28:18.425Z,52.07
2019-03-29T12:30:48.912Z,51.03
2019-03-29T12:33:19.828Z,50.94
2019-03-29T12:35:50.291Z,50.50
2019-03-29T12:38:21.019Z,50.81
2019-03-29T12:40:51.926Z,50.94
2019-03-29T12:43:22.480Z,49.34
2019-03-29T12:45:53.095Z,49.34
2019-03-29T12:48:25.698Z,49.43
2019-03-29T12:50:57.822Z,47.89
2019-03-29T12:53:28.319Z,47.89
2019-03-29T12:55:58.987Z,47.41
2019-03-29T12:58:30.299Z,47.20
2019-03-29T13:01:01.269Z,47.09
2019-03-29T13:03:32.021Z,46.37
2019-03-29T13:06:02.578Z,45.86
2019-03-29T13:08:33.044Z,45.42
2019-03-29T13:11:05.010Z,43.72
2019-03-29T13:13:35.642Z,44.02
2019-03-29T13:16:06.338Z,44.34
2019-03-29T13:18:38.019Z,42.88
2019-03-29T13:21:08.879Z,42.65
2019-03-29T13:23:41.271Z,41.45
2019-03-29T13:26:11.694Z,41.75
2019-03-29T13:28:42.232Z,42.03
2019-03-29T13:31:14.247Z,40.82
2019-03-29T13:33:44.887Z,39.65
2019-03-29T13:36:15.480Z,40.24
2019-03-29T13:38:47.703Z,40.07
2019-03-29T13:41:18.151Z,39.40
2019-03-29T13:43:49.093Z,39.31
2019-03-29T13:46:19.638Z,39.23
2019-03-29T13:48:50.155Z,38.50
2019-03-29T13:51:20.865Z,37.39
2019-03-29T13:53:51.336Z,36.94
2019-03-29T13:56:22.485Z,35.41
2019-03-29T13:58:52.933Z,37.13
2019-03-29T14:01:23.808Z,37.53
2019-03-29T14:03:54.248Z,36.42
2019-03-29T14:06:24.830Z,36.68
2019-03-29T14:08:55.446Z,36.09
2019-03-29T14:11:26.432Z,36.19
2019-03-29T14:13:57.046Z,37.57
2019-03-29T14:16:27.565Z,37.53
2019-03-29T14:18:58.065Z,38.27
2019-03-29T14:21:28.603Z,39.00
2019-03-29T14:23:59.086Z,39.56
2019-03-29T14:26:29.824Z,40.19
2019-03-29T14:29:00.697Z,41.31
2019-03-29T14:31:31.101Z,41.64
2019-03-29T14:34:01.971Z,42.34
2019-03-29T14:36:32.444Z,42.69
2019-03-29T14:39:02.950Z,43.43
2019-03-29T14:41:34.221Z,43.80
2019-03-29T14:44:04.646Z,44.15
2019-03-29T14:46:35.387Z,43.92
2019-03-29T14:49:05.890Z,43.24
2019-03-29T14:51:36.760Z,43.24
2019-03-29T14:54:07.228Z,43.42
2019-03-29T14:56:38.018Z,44.01
2019-03-29T14:59:08.635Z,43.91
2019-03-29T15:01:39.027Z,44.03
2019-03-29T15:04:09.424Z,42.90
2019-03-29T15:06:40.169Z,42.87
2019-03-29T15:09:10.682Z,42.42
2019-03-29T15:11:41.126Z,42.87
2019-03-29T15:14:11.603Z,43.23
2019-03-29T15:16:42.332Z,42.92
2019-03-29T15:19:12.734Z,42.92
2019-03-29T15:21:43.222Z,43.22
2019-03-29T15:24:13.738Z,42.93
2019-03-29T15:26:44.226Z,42.72
2019-03-29T15:29:14.563Z,41.89
2019-03-29T15:31:45.035Z,40.59
2019-03-29T15:34:15.435Z,40.88
2019-03-29T15:36:45.948Z,40.51
2019-03-29T15:39:16.588Z,40.90
2019-03-29T15:41:47.123Z,41.90
2019-03-29T15:44:18.700Z,41.94
2019-03-29T15:46:49.205Z,42.16
2019-03-29T15:49:19.697Z,41.89
2019-03-29T15:51:50.104Z,41.00
2019-03-29T15:54:20.579Z,41.15
2019-03-29T15:56:50.967Z,42.42
2019-03-29T15:59:21.340Z,42.81
2019-03-29T16:01:51.849Z,42.11
2019-03-29T16:04:22.240Z,41.20
2019-03-29T16:06:52.712Z,40.43
2019-03-29T16:09:23.112Z,41.17
2019-03-29T16:11:53.782Z,41.11
2019-03-29T16:14:24.178Z,40.94
2019-03-29T16:16:54.642Z,39.86
2019-03-29T16:19:25.111Z,39.30
2019-03-29T16:21:55.420Z,39.38
2019-03-29T16:24:27.232Z,40.18
2019-03-29T16:26:57.963Z,40.42
2019-03-29T16:29:28.301Z,40.17
2019-03-29T16:31:58.677Z,40.29
2019-03-29T16:34:29.157Z,40.86
2019-03-29T16:36:59.544Z,41.13
2019-03-29T16:39:30.327Z,41.54
2019-03-29T16:42:00.734Z,41.09
2019-03-29T16:44:31.484Z,41.26
2019-03-29T16:47:01.978Z,40.79
2019-03-29T16:49:33.134Z,41.69
2019-03-29T16:52:03.867Z,40.87
2019-03-29T16:54:34.897Z,41.35
2019-03-29T16:57:05.843Z,40.94
2019-03-29T16:59:36.226Z,40.56
2019-03-29T17:02:06.883Z,40.73
2019-03-29T17:04:37.756Z,40.98
2019-03-29T17:07:08.318Z,41.34
2019-03-29T17:09:39.132Z,42.10
2019-03-29T17:12:09.841Z,41.79
2019-03-29T17:14:40.506Z,42.50
2019-03-29T17:17:10.814Z,42.61
2019-03-29T17:19:41.430Z,43.43
2019-03-29T17:22:12.160Z,43.45
2019-03-29T17:24:56.366Z,44.49
2019-03-29T17:27:15.312Z,45.88
2019-03-29T17:29:46.105Z,45.88
2019-03-29T17:32:16.921Z,46.46
2019-03-29T17:34:47.713Z,47.05
2019-03-29T17:37:18.226Z,47.92
2019-03-29T17:39:49.096Z,48.25
2019-03-29T17:42:19.468Z,48.01
2019-03-29T17:44:49.866Z,47.65
2019-03-29T17:47:20.236Z,48.14
2019-03-29T17:49:50.840Z,48.49
2019-03-29T17:52:21.166Z,49.10
2019-03-29T17:54:51.659Z,48.78
2019-03-29T17:57:22.045Z,49.24
2019-03-29T17:59:52.455Z,49.86
2019-03-29T18:02:23.006Z,49.86
2019-03-29T18:04:54.015Z,50.16
2019-03-29T18:07:24.598Z,50.00
2019-03-29T18:09:55.074Z,50.06
2019-03-29T18:12:25.467Z,50.69
2019-03-29T18:14:55.804Z,51.68
2019-03-29T18:17:26.456Z,51.29
2019-03-29T18:19:57.083Z,52.08
2019-03-29T18:22:28.437Z,52.23
2019-03-29T18:24:58.906Z,52.87
2019-03-29T18:27:30.548Z,52.23
2019-03-29T18:30:01.348Z,52.93
2019-03-29T18:32:33.012Z,53.79
2019-03-29T18:35:03.492Z,53.88
2019-03-29T18:37:34.896Z,54.25
2019-03-29T18:40:05.998Z,54.92
2019-03-29T18:42:36.454Z,55.01
2019-03-29T18:45:07.509Z,55.45
2019-03-29T18:47:37.939Z,54.61
2019-03-29T18:50:08.596Z,53.90
2019-03-29T18:52:38.966Z,54.21
2019-03-29T18:55:09.444Z,54.23
2019-03-29T18:57:39.842Z,54.06
2019-03-29T19:00:10.648Z,53.56
2019-03-29T19:02:41.113Z,53.28
2019-03-29T19:05:18.708Z,53.29
2019-03-29T19:07:49.100Z,52.97
2019-03-29T19:10:19.582Z,53.07
2019-03-29T19:12:50.375Z,53.47
2019-03-29T19:15:22.190Z,53.75
2019-03-29T19:17:52.863Z,53.96
2019-03-29T19:20:27.907Z,54.35
2019-03-29T19:22:55.524Z,54.63
2019-03-29T19:25:25.993Z,54.48
2019-03-29T19:27:56.633Z,54.47
2019-03-29T19:30:27.198Z,55.25
2019-03-29T19:32:57.589Z,55.40
2019-03-29T19:35:28.415Z,55.48
2019-03-29T19:37:58.790Z,55.41
2019-03-29T19:40:29.189Z,54.95
2019-03-29T19:42:59.647Z,55.34
2019-03-29T19:45:34.037Z,55.55
2019-03-29T19:48:02.803Z,55.93
2019-03-29T19:50:33.295Z,56.14
2019-03-29T19:53:03.926Z,55.91
2019-03-29T19:55:35.042Z,56.10
2019-03-29T19:58:05.873Z,56.39
2019-03-29T20:00:41.234Z,56.76
2019-03-29T20:03:11.676Z,56.86
2019-03-29T20:05:42.146Z,57.03
2019-03-29T20:08:12.865Z,57.00
2019-03-29T20:10:43.248Z,57.41
2019-03-29T20:13:13.723Z,57.35
2019-03-29T20:15:44.185Z,56.97
2019-03-29T20:18:14.969Z,56.98
2019-03-29T20:20:45.429Z,57.32
2019-03-29T20:23:16.143Z,57.79
2019-03-29T20:25:46.872Z,58.34
2019-03-29T20:28:17.755Z,58.37
2019-03-29T20:30:48.246Z,58.54
2019-03-29T20:33:18.641Z,58.81
2019-03-29T20:35:49.502Z,58.88
2019-03-29T20:38:20.130Z,58.84
2019-03-29T20:40:50.549Z,59.07
2019-03-29T20:43:21.291Z,59.28
2019-03-29T20:45:52.038Z,59.45
2019-03-29T20:48:22.503Z,59.68
2019-03-29T20:50:53.006Z,59.91
2019-03-29T20:53:23.688Z,59.98
2019-03-29T20:55:54.294Z,60.21
2019-03-29T20:58:24.755Z,60.27
2019-03-29T21:00:55.295Z,60.66
2019-03-29T21:03:25.844Z,60.44
2019-03-29T21:05:56.688Z,60.48
2019-03-29T21:08:27.079Z,60.66
2019-03-29T21:10:57.602Z,60.79
2019-03-29T21:13:28.282Z,60.82
2019-03-29T21:15:58.730Z,60.79
2019-03-29T21:18:29.198Z,60.85
2019-03-29T21:20:59.943Z,61.05
2019-03-29T21:23:31.296Z,61.50
2019-03-29T21:26:01.788Z,61.35
2019-03-29T21:28:34.893Z,61.43
2019-03-29T21:31:04.339Z,61.55
2019-03-29T21:33:34.810Z,61.48
2019-03-29T21:36:05.413Z,61.71
2019-03-29T21:38:35.821Z,62.09
2019-03-29T21:41:06.593Z,62.12
2019-03-29T21:43:37.357Z,62.33
2019-03-29T21:46:07.822Z,62.07
2019-03-29T21:48:38.124Z,62.27
2019-03-29T21:51:08.502Z,62.73
2019-03-29T21:53:38.894Z,62.59
2019-03-29T21:56:09.844Z,62.62
2019-03-29T21:58:40.336Z,62.45
2019-03-29T22:01:10.902Z,62.43
2019-03-29T22:03:41.360Z,62.33
2019-03-29T22:06:11.833Z,62.38
2019-03-29T22:08:42.209Z,62.71
2019-03-29T22:11:12.623Z,62.60
2019-03-29T22:13:43.496Z,62.49
2019-03-29T22:16:14.350Z,62.50
2019-03-29T22:18:44.811Z,62.61
2019-03-29T22:21:15.282Z,63.17
2019-03-29T22:23:45.659Z,63.33
2019-03-29T22:26:16.051Z,63.63
2019-03-29T22:28:46.422Z,64.03
2019-03-29T22:31:16.952Z,64.20
2019-03-29T22:33:47.611Z,64.15
2019-03-29T22:36:18.113Z,64.17
2019-03-29T22:38:48.792Z,64.30
2019-03-29T22:41:19.185Z,64.25
2019-03-29T22:43:49.692Z,64.42
2019-03-29T22:46:20.104Z,64.33
2019-03-29T22:48:52.933Z,64.18
2019-03-29T22:51:22.812Z,63.84
2019-03-29T22:53:53.587Z,63.91
2019-03-29T22:56:24.743Z,64.28
2019-03-29T22:58:55.213Z,64.54
2019-03-29T23:01:26.509Z,64.58
2019-03-29T23:03:56.967Z,64.67
2019-03-29T23:06:27.400Z,64.65
2019-03-29T23:08:57.782Z,64.64
2019-03-29T23:11:28.433Z,64.57
2019-03-29T23:13:58.901Z,64.58
2019-03-29T23:16:30.449Z,64.85
2019-03-29T23:19:06.899Z,65.35
2019-03-29T23:21:33.513Z,65.99
2019-03-29T23:24:03.998Z,66.09
2019-03-29T23:26:34.393Z,66.19
2019-03-29T23:29:05.201Z,66.32
2019-03-29T23:31:35.839Z,66.37
2019-03-29T23:34:06.288Z,66.48
2019-03-29T23:36:36.824Z,66.48
2019-03-29T23:39:07.565Z,66.44
2019-03-29T23:41:38.259Z,66.51
2019-03-29T23:44:08.741Z,66.45
2019-03-29T23:46:39.413Z,66.36
2019-03-29T23:49:21.081Z,66.67
2019-03-29T23:51:42.531Z,67.36
2019-03-29T23:54:13.266Z,67.48
2019-03-29T23:56:43.728Z,67.42
2019-03-29T23:59:14.169Z,67.34
